createdAt,value
2023-04-15T00:01:43.379Z,3.93
2023-04-15T00:04:46.201Z,3.96
2023-04-15T00:07:48.310Z,3.88
2023-04-15T00:10:50.416Z,3.93
2023-04-15T00:13:52.132Z,3.91
2023-04-15T00:16:56.882Z,4.02
2023-04-15T00:19:58.733Z,3.95
2023-04-15T00:23:00.949Z,3.93
2023-04-15T00:26:03.955Z,3.95
2023-04-15T00:29:06.241Z,3.95
2023-04-15T00:32:10.212Z,4.00
2023-04-15T00:35:12.563Z,4.04
2023-04-15T00:38:16.252Z,4.07
2023-04-15T00:41:18.886Z,4.11
2023-04-15T00:44:20.623Z,4.01
2023-04-15T00:47:25.099Z,3.97
2023-04-15T00:50:27.226Z,3.99
2023-04-15T00:53:29.162Z,3.96
2023-04-15T00:56:32.167Z,4.05
2023-04-15T00:59:34.542Z,3.96
2023-04-15T01:02:40.585Z,3.96
2023-04-15T01:05:42.610Z,3.92
2023-04-15T01:08:45.622Z,3.88
2023-04-15T01:11:47.819Z,3.94
2023-04-15T01:14:49.905Z,3.87
2023-04-15T01:17:53.363Z,3.83
2023-04-15T01:20:56.499Z,3.86
2023-04-15T01:24:01.599Z,3.88
2023-04-15T01:27:04.782Z,3.89
2023-04-15T01:30:08.841Z,3.93
2023-04-15T01:33:12.902Z,3.97
2023-04-15T01:36:16.489Z,3.99
2023-04-15T01:39:18.259Z,3.98
2023-04-15T01:42:22.658Z,3.94
2023-04-15T01:45:24.640Z,3.94
2023-04-15T01:48:27.552Z,3.97
2023-04-15T01:51:29.319Z,3.95
2023-04-15T01:54:34.618Z,3.96
2023-04-15T01:57:38.211Z,3.93
2023-04-15T02:00:40.109Z,3.93
2023-04-15T02:03:42.373Z,3.89
2023-04-15T02:06:44.851Z,3.92
2023-04-15T02:09:47.321Z,3.93
2023-04-15T02:12:52.806Z,3.86
2023-04-15T02:15:55.431Z,3.88
2023-04-15T02:18:57.227Z,3.81
2023-04-15T02:22:01.403Z,3.81
2023-04-15T02:25:05.667Z,3.79
2023-04-15T02:28:18.293Z,3.84
2023-04-15T02:31:20.566Z,3.75
2023-04-15T02:34:22.464Z,3.81
2023-04-15T02:37:24.977Z,3.77
2023-04-15T02:40:27.256Z,3.78
2023-04-15T02:43:33.123Z,3.76
2023-04-15T02:46:34.862Z,3.76
2023-04-15T02:49:38.409Z,3.76
2023-04-15T02:52:40.222Z,3.66
2023-04-15T02:55:42.422Z,3.71
2023-04-15T02:58:47.240Z,3.64
2023-04-15T03:01:49.041Z,3.61
2023-04-15T03:04:51.082Z,3.65
2023-04-15T03:07:53.055Z,3.63
2023-04-15T03:10:55.243Z,3.66
2023-04-15T03:13:59.044Z,3.67
2023-04-15T03:17:01.473Z,3.59
2023-04-15T03:20:04.434Z,3.64
2023-04-15T03:23:08.072Z,3.69
2023-04-15T03:26:18.758Z,3.61
2023-04-15T03:29:21.973Z,3.62
2023-04-15T03:32:23.909Z,3.63
2023-04-15T03:35:28.093Z,3.59
2023-04-15T03:38:29.897Z,3.58
2023-04-15T03:41:33.076Z,3.57
2023-04-15T03:44:36.311Z,3.49
2023-04-15T03:47:39.700Z,3.52
2023-04-15T03:50:41.491Z,3.48
2023-04-15T03:53:43.596Z,3.50
2023-04-15T03:56:45.440Z,3.48
2023-04-15T03:59:50.628Z,3.45
2023-04-15T04:02:52.554Z,3.52
2023-04-15T04:05:54.791Z,3.52
2023-04-15T04:08:56.556Z,3.47
2023-04-15T04:11:59.828Z,3.49
2023-04-15T04:15:03.361Z,3.52
2023-04-15T04:18:06.148Z,3.46
2023-04-15T04:21:08.158Z,3.48
2023-04-15T04:24:10.212Z,3.49
2023-04-15T04:27:14.544Z,3.49
2023-04-15T04:30:18.102Z,3.53
2023-04-15T04:33:21.237Z,3.51
2023-04-15T04:36:23.344Z,3.56
2023-04-15T04:39:27.099Z,3.55
2023-04-15T04:42:28.941Z,3.58
2023-04-15T04:45:33.491Z,3.66
2023-04-15T04:48:35.378Z,3.59
2023-04-15T04:51:39.375Z,3.59
2023-04-15T04:54:43.497Z,3.63
2023-04-15T04:57:48.386Z,3.67
2023-04-15T05:00:51.774Z,3.67
2023-04-15T05:03:56.276Z,3.69
2023-04-15T05:06:58.448Z,3.68
2023-04-15T05:10:00.257Z,3.61
2023-04-15T05:13:02.080Z,3.64
2023-04-15T05:16:08.555Z,3.59
2023-04-15T05:19:10.468Z,3.61
2023-04-15T05:22:12.509Z,3.61
2023-04-15T05:25:15.338Z,3.58
2023-04-15T05:28:17.250Z,3.64
2023-04-15T05:31:20.823Z,3.55
2023-04-15T05:34:22.904Z,3.50
2023-04-15T05:37:24.816Z,3.41
2023-04-15T05:40:26.647Z,3.45
2023-04-15T05:43:28.716Z,3.47
2023-04-15T05:46:33.114Z,3.41
2023-04-15T05:49:34.925Z,3.39
2023-04-15T05:52:37.012Z,3.41
2023-04-15T05:55:39.040Z,3.34
2023-04-15T05:58:40.952Z,3.34
2023-04-15T06:01:44.191Z,3.32
2023-04-15T06:04:48.362Z,3.38
2023-04-15T06:07:53.169Z,3.37
2023-04-15T06:10:55.096Z,3.36
2023-04-15T06:13:56.903Z,3.26
2023-04-15T06:17:01.213Z,3.27
2023-04-15T06:20:03.300Z,3.24
2023-04-15T06:23:05.379Z,3.24
2023-04-15T06:26:09.317Z,3.24
2023-04-15T06:29:12.104Z,3.26
2023-04-15T06:32:17.820Z,3.28
2023-04-15T06:35:20.268Z,3.30
2023-04-15T06:38:22.307Z,3.28
2023-04-15T06:41:24.863Z,3.22
2023-04-15T06:44:31.545Z,3.30
2023-04-15T06:47:38.427Z,3.34
2023-04-15T06:50:40.440Z,3.27
2023-04-15T06:53:42.237Z,3.31
2023-04-15T06:56:44.081Z,3.31
2023-04-15T06:59:45.955Z,3.25
2023-04-15T07:02:49.187Z,3.26
2023-04-15T07:05:53.554Z,3.21
2023-04-15T07:08:56.317Z,3.25
2023-04-15T07:11:59.030Z,3.27
2023-04-15T07:15:01.285Z,3.32
2023-04-15T07:18:05.398Z,3.39
2023-04-15T07:21:07.602Z,3.35
2023-04-15T07:24:10.737Z,3.36
2023-04-15T07:27:12.501Z,3.40
2023-04-15T07:30:14.270Z,3.34
2023-04-15T07:33:19.544Z,3.32
2023-04-15T07:36:22.388Z,3.32
2023-04-15T07:39:24.365Z,3.28
2023-04-15T07:42:29.465Z,3.24
2023-04-15T07:45:32.106Z,3.25
2023-04-15T07:48:36.356Z,3.30
2023-04-15T07:51:39.456Z,3.26
2023-04-15T07:54:41.423Z,3.28
2023-04-15T07:57:43.528Z,3.30
2023-04-15T08:00:45.879Z,3.24
2023-04-15T08:03:49.336Z,3.20
2023-04-15T08:06:51.752Z,3.17
2023-04-15T08:09:54.034Z,3.15
2023-04-15T08:12:55.808Z,3.20
2023-04-15T08:16:14.393Z,3.22
2023-04-15T08:19:17.557Z,3.13
2023-04-15T08:22:20.560Z,3.06
2023-04-15T08:25:23.033Z,3.13
2023-04-15T08:28:26.134Z,3.10
2023-04-15T08:31:30.172Z,3.10
2023-04-15T08:34:33.533Z,3.18
2023-04-15T08:37:37.639Z,3.24
2023-04-15T08:40:42.603Z,3.16
2023-04-15T08:43:51.942Z,3.04
2023-04-15T08:46:56.269Z,3.08
2023-04-15T08:50:01.582Z,3.22
2023-04-15T08:53:03.770Z,3.19
2023-04-15T08:56:09.540Z,3.34
2023-04-15T08:59:12.044Z,3.33
2023-04-15T09:02:13.979Z,3.33
2023-04-15T09:05:17.146Z,3.29
2023-04-15T09:08:21.579Z,3.45
2023-04-15T09:11:23.654Z,3.43
2023-04-15T09:14:25.716Z,3.55
2023-04-15T09:17:27.960Z,3.64
2023-04-15T09:20:38.639Z,3.52
2023-04-15T09:23:55.784Z,3.59
2023-04-15T09:26:59.300Z,3.57
2023-04-15T09:30:01.154Z,3.53
2023-04-15T09:33:04.748Z,3.56
2023-04-15T09:36:09.101Z,3.57
2023-04-15T09:39:11.061Z,3.53
2023-04-15T09:42:12.924Z,3.65
2023-04-15T09:45:15.136Z,3.59
2023-04-15T09:48:19.800Z,3.60
2023-04-15T09:51:35.611Z,3.68
2023-04-15T09:54:38.952Z,3.77
2023-04-15T09:57:40.966Z,3.80
2023-04-15T10:00:42.933Z,3.86
2023-04-15T10:03:46.385Z,3.86
2023-04-15T10:06:50.261Z,3.83
2023-04-15T10:09:56.217Z,3.93
2023-04-15T10:12:58.438Z,4.10
2023-04-15T10:16:05.369Z,3.94
2023-04-15T10:19:09.741Z,3.97
2023-04-15T10:22:15.501Z,3.84
2023-04-15T10:25:18.590Z,3.96
2023-04-15T10:28:21.155Z,4.01
2023-04-15T10:31:23.831Z,3.86
2023-04-15T10:34:26.123Z,3.94
2023-04-15T10:37:36.192Z,4.09
2023-04-15T10:40:39.607Z,4.16
2023-04-15T10:43:48.775Z,4.12
2023-04-15T10:46:52.376Z,4.14
2023-04-15T10:49:58.652Z,4.11
2023-04-15T10:53:03.555Z,4.24
2023-04-15T10:56:06.272Z,4.19
2023-04-15T10:59:08.098Z,4.13
2023-04-15T11:02:14.364Z,4.22
2023-04-15T11:05:17.354Z,4.19
2023-04-15T11:08:41.331Z,4.25
2023-04-15T11:12:05.736Z,4.29
2023-04-15T11:15:29.434Z,4.30
2023-04-15T11:18:33.178Z,4.28
2023-04-15T11:21:36.115Z,4.40
2023-04-15T11:24:48.347Z,4.29
2023-04-15T11:27:50.689Z,4.26
2023-04-15T11:30:54.337Z,4.20
2023-04-15T11:33:57.394Z,4.18
2023-04-15T11:37:03.705Z,4.15
2023-04-15T11:40:10.266Z,4.16
2023-04-15T11:43:14.375Z,4.15
2023-04-15T11:46:16.778Z,4.21
2023-04-15T11:49:29.942Z,4.18
2023-04-15T11:52:31.992Z,4.18
2023-04-15T11:55:46.009Z,4.19
2023-04-15T11:58:50.787Z,4.19
2023-04-15T12:01:52.875Z,4.20
2023-04-15T12:05:04.495Z,4.27
2023-04-15T12:08:06.889Z,4.45
2023-04-15T12:11:10.087Z,4.41
2023-04-15T12:14:16.628Z,4.46
2023-04-15T12:17:18.962Z,4.40
2023-04-15T12:20:25.256Z,4.36
2023-04-15T12:23:27.117Z,4.35
2023-04-15T12:26:32.630Z,4.42
2023-04-15T12:29:36.114Z,4.32
2023-04-15T12:32:40.454Z,4.41
2023-04-15T12:35:44.203Z,4.40
2023-04-15T12:38:46.187Z,4.45
2023-04-15T12:41:49.413Z,4.42
2023-04-15T12:44:51.429Z,4.38
2023-04-15T12:47:53.489Z,4.41
2023-04-15T12:50:58.267Z,4.40
2023-04-15T12:54:00.167Z,4.42
2023-04-15T12:57:08.135Z,4.51
2023-04-15T13:00:11.970Z,4.51
2023-04-15T13:03:14.134Z,4.55
2023-04-15T13:06:18.740Z,4.57
2023-04-15T13:09:20.496Z,4.55
2023-04-15T13:12:23.688Z,4.56
2023-04-15T13:15:25.459Z,4.55
2023-04-15T13:18:27.441Z,4.52
2023-04-15T13:21:29.571Z,4.55
2023-04-15T13:24:31.432Z,4.55
2023-04-15T13:27:40.891Z,4.58
2023-04-15T13:30:42.648Z,4.62
2023-04-15T13:33:44.707Z,4.67
2023-04-15T13:36:47.126Z,4.72
2023-04-15T13:39:51.150Z,4.71
2023-04-15T13:42:54.584Z,4.74
2023-04-15T13:45:56.605Z,4.61
2023-04-15T13:48:58.918Z,4.59
2023-04-15T13:52:00.970Z,4.46
2023-04-15T13:55:18.575Z,4.54
2023-04-15T13:58:23.289Z,4.52
2023-04-15T14:01:25.099Z,4.53
2023-04-15T14:04:27.178Z,4.65
2023-04-15T14:07:32.309Z,4.56
2023-04-15T14:10:35.280Z,4.54
2023-04-15T14:13:38.646Z,4.62
2023-04-15T14:16:40.559Z,4.70
2023-04-15T14:19:42.701Z,4.72
2023-04-15T14:22:44.701Z,4.67
2023-04-15T14:25:48.348Z,4.66
2023-04-15T14:28:52.122Z,4.60
2023-04-15T14:32:04.063Z,4.70
2023-04-15T14:35:14.399Z,4.66
2023-04-15T14:38:17.070Z,4.68
2023-04-15T14:41:19.424Z,4.74
2023-04-15T14:44:22.980Z,4.75
2023-04-15T14:47:25.823Z,4.72
2023-04-15T14:50:28.819Z,4.70
2023-04-15T14:53:30.854Z,4.60
2023-04-15T14:56:34.375Z,4.69
2023-04-15T14:59:40.883Z,4.72
2023-04-15T15:02:42.916Z,4.76
2023-04-15T15:05:49.866Z,4.71
2023-04-15T15:08:51.923Z,4.74
2023-04-15T15:11:54.029Z,4.68
2023-04-15T15:15:02.989Z,4.65
2023-04-15T15:18:07.691Z,4.63
2023-04-15T15:21:09.701Z,4.62
2023-04-15T15:24:14.488Z,4.67
2023-04-15T15:27:16.774Z,4.74
2023-04-15T15:30:20.389Z,4.69
2023-04-15T15:33:22.428Z,4.73
2023-04-15T15:36:25.282Z,4.52
2023-04-15T15:39:28.109Z,4.50
2023-04-15T15:42:32.193Z,4.60
2023-04-15T15:45:40.912Z,4.60
2023-04-15T15:48:42.956Z,4.60
2023-04-15T15:51:45.545Z,4.62
2023-04-15T15:54:48.732Z,4.67
2023-04-15T15:57:50.585Z,4.62
2023-04-15T16:00:54.227Z,4.73
2023-04-15T16:03:56.491Z,4.87
2023-04-15T16:06:58.705Z,4.84
2023-04-15T16:10:01.323Z,4.90
2023-04-15T16:13:03.170Z,4.94
2023-04-15T16:16:07.574Z,4.96
2023-04-15T16:19:09.471Z,4.91
2023-04-15T16:22:12.042Z,4.94
2023-04-15T16:25:14.201Z,4.86
2023-04-15T16:28:26.266Z,4.95
2023-04-15T16:31:31.295Z,4.85
2023-04-15T16:34:33.544Z,4.89
2023-04-15T16:37:36.171Z,4.93
2023-04-15T16:40:38.418Z,4.97
2023-04-15T16:43:40.859Z,5.02
2023-04-15T16:46:44.608Z,5.06
2023-04-15T16:49:47.010Z,4.99
2023-04-15T16:52:48.956Z,5.02
2023-04-15T16:55:51.357Z,4.99
2023-04-15T16:58:53.221Z,5.10
2023-04-15T17:01:58.667Z,5.06
2023-04-15T17:05:02.539Z,4.93
2023-04-15T17:08:04.556Z,4.91
2023-04-15T17:11:07.313Z,4.91
2023-04-15T17:14:09.939Z,4.93
2023-04-15T17:17:14.348Z,4.85
2023-04-15T17:20:16.714Z,4.91
2023-04-15T17:23:20.208Z,4.93
2023-04-15T17:26:25.211Z,4.91
2023-04-15T17:29:27.400Z,4.87
2023-04-15T17:32:32.034Z,4.93
2023-04-15T17:35:35.940Z,4.93
2023-04-15T17:38:38.261Z,4.96
2023-04-15T17:41:40.156Z,4.92
2023-04-15T17:44:42.955Z,4.99
2023-04-15T17:47:49.537Z,4.92
2023-04-15T17:50:52.104Z,4.93
2023-04-15T17:53:54.883Z,4.78
2023-04-15T17:57:00.066Z,4.90
2023-04-15T18:00:02.745Z,4.96
2023-04-15T18:03:07.075Z,4.93
2023-04-15T18:06:11.710Z,4.92
2023-04-15T18:09:14.941Z,4.91
2023-04-15T18:12:16.748Z,4.93
2023-04-15T18:15:19.550Z,4.92
2023-04-15T18:18:27.569Z,4.90
2023-04-15T18:21:29.996Z,4.86
2023-04-15T18:24:34.946Z,4.93
2023-04-15T18:27:37.240Z,4.90
2023-04-15T18:30:40.630Z,4.90
2023-04-15T18:33:44.900Z,4.81
2023-04-15T18:36:47.722Z,4.82
2023-04-15T18:39:50.124Z,4.76
2023-04-15T18:42:52.804Z,4.77
2023-04-15T18:45:58.729Z,4.85
2023-04-15T18:49:05.435Z,4.81
2023-04-15T18:52:10.248Z,4.84
2023-04-15T18:55:12.448Z,4.76
2023-04-15T18:58:14.893Z,4.84
2023-04-15T19:01:17.449Z,4.78
2023-04-15T19:04:25.774Z,4.90
2023-04-15T19:07:28.390Z,4.86
2023-04-15T19:10:30.737Z,4.83
2023-04-15T19:13:34.894Z,4.89
2023-04-15T19:16:37.135Z,4.84
2023-04-15T19:19:45.558Z,4.90
2023-04-15T19:22:48.537Z,4.81
2023-04-15T19:25:52.964Z,4.83
2023-04-15T19:28:55.916Z,4.77
2023-04-15T19:31:58.203Z,4.75
2023-04-15T19:35:02.101Z,4.83
2023-04-15T19:38:06.804Z,4.81
2023-04-15T19:41:11.089Z,4.77
2023-04-15T19:44:15.363Z,4.73
2023-04-15T19:47:18.293Z,4.77
2023-04-15T19:50:23.475Z,4.68
2023-04-15T19:53:30.789Z,4.78
2023-04-15T19:56:34.486Z,4.60
2023-04-15T19:59:37.585Z,4.53
2023-04-15T20:02:42.196Z,4.56
2023-04-15T20:05:49.641Z,4.57
2023-04-15T20:08:53.967Z,4.67
2023-04-15T20:12:44.862Z,4.59
2023-04-15T20:15:25.703Z,4.63
2023-04-15T20:18:28.781Z,4.60
2023-04-15T20:21:32.500Z,4.68
2023-04-15T20:24:36.250Z,4.61
2023-04-15T20:27:38.849Z,4.66
2023-04-15T20:30:42.170Z,4.58
2023-04-15T20:33:44.046Z,4.62
2023-04-15T20:36:48.682Z,4.66
2023-04-15T20:39:51.002Z,4.72
2023-04-15T20:42:57.887Z,4.68
2023-04-15T20:46:07.034Z,4.72
2023-04-15T20:49:19.771Z,4.79
2023-04-15T20:52:25.255Z,4.78
2023-04-15T20:55:30.568Z,4.77
2023-04-15T20:58:33.915Z,4.78
2023-04-15T21:01:37.510Z,4.70
2023-04-15T21:04:40.496Z,4.73
2023-04-15T21:07:44.678Z,4.82
2023-04-15T21:10:47.225Z,4.73
2023-04-15T21:13:49.357Z,4.62
2023-04-15T21:16:52.151Z,4.65
2023-04-15T21:19:54.293Z,4.63
2023-04-15T21:22:59.776Z,4.61
2023-04-15T21:26:02.276Z,4.66
2023-04-15T21:29:05.892Z,4.64
2023-04-15T21:32:09.406Z,4.68
2023-04-15T21:35:11.311Z,4.60
2023-04-15T21:38:14.907Z,4.61
2023-04-15T21:41:16.902Z,4.57
2023-04-15T21:44:18.820Z,4.61
2023-04-15T21:47:20.883Z,4.59
2023-04-15T21:50:23.082Z,4.61
2023-04-15T21:53:26.277Z,4.68
2023-04-15T21:56:28.061Z,4.60
2023-04-15T21:59:30.003Z,4.54
2023-04-15T22:02:31.992Z,4.65
2023-04-15T22:05:35.373Z,4.58
2023-04-15T22:08:48.787Z,4.60
2023-04-15T22:11:58.142Z,4.65
2023-04-15T22:14:59.936Z,4.66
2023-04-15T22:18:04.923Z,4.59
2023-04-15T22:21:07.045Z,4.60
2023-04-15T22:24:38.993Z,4.60
2023-04-15T22:27:35.370Z,4.57
2023-04-15T22:30:37.832Z,4.58
2023-04-15T22:33:40.459Z,4.71
2023-04-15T22:36:42.822Z,4.63
2023-04-15T22:39:46.639Z,4.67
2023-04-15T22:42:49.361Z,4.68
2023-04-15T22:45:51.404Z,4.74
2023-04-15T22:48:53.242Z,4.70
2023-04-15T22:51:55.013Z,4.66
2023-04-15T22:55:00.021Z,4.60
2023-04-15T22:58:04.143Z,4.66
2023-04-15T23:01:05.957Z,4.65
2023-04-15T23:04:22.880Z,4.66
2023-04-15T23:07:27.628Z,4.66
2023-04-15T23:10:30.937Z,4.65
2023-04-15T23:13:33.819Z,4.67
2023-04-15T23:16:35.909Z,4.68
2023-04-15T23:19:37.693Z,4.70
2023-04-15T23:22:40.396Z,4.62
2023-04-15T23:25:43.660Z,4.68
2023-04-15T23:28:45.495Z,4.51
2023-04-15T23:31:47.872Z,4.44
2023-04-15T23:34:49.661Z,4.52
2023-04-15T23:37:52.992Z,4.44
2023-04-15T23:40:56.528Z,4.47
2023-04-15T23:43:58.616Z,4.45
2023-04-15T23:47:00.498Z,4.46
2023-04-15T23:50:05.226Z,4.43
2023-04-15T23:53:07.458Z,4.40
2023-04-15T23:56:10.724Z,4.41
2023-04-15T23:59:12.580Z,4.39
